createdAt,value
2022-09-16T00:04:09.742Z,89.97156
2022-09-16T00:09:10.676Z,92.79227
2022-09-16T00:14:11.599Z,92.79227
2022-09-16T00:19:12.490Z,91.36842
2022-09-16T00:24:13.904Z,90.66667
2022-09-16T00:29:14.888Z,91.01671
2022-09-16T00:34:15.860Z,91.01671
2022-09-16T00:39:16.907Z,91.36842
2022-09-16T00:44:17.866Z,90.66667
2022-09-16T00:49:18.787Z,90.31829
2022-09-16T00:54:19.744Z,89.97156
2022-09-16T00:59:20.750Z,90.66667
2022-09-16T01:04:21.684Z,92.07692
2022-09-16T01:09:22.683Z,91.01671
2022-09-16T01:14:23.826Z,90.66667
2022-09-16T01:19:24.833Z,92.79227
2022-09-16T01:24:25.820Z,93.87835
2022-09-16T01:29:26.796Z,92.79227
2022-09-16T01:34:27.698Z,91.72182
2022-09-16T01:39:28.707Z,90.66667
2022-09-16T01:44:29.602Z,90.31829
2022-09-16T01:49:30.683Z,91.36842
2022-09-16T01:54:31.649Z,91.36842
2022-09-16T01:59:32.562Z,90.66667
2022-09-16T02:04:33.539Z,89.62648
2022-09-16T02:09:34.546Z,89.62648
2022-09-16T02:14:35.484Z,88.94118
2022-09-16T02:19:36.557Z,88.94118
2022-09-16T02:24:37.571Z,89.28302
2022-09-16T02:29:38.553Z,90.66667
2022-09-16T02:34:39.462Z,89.62648
2022-09-16T02:39:40.357Z,89.62648
2022-09-16T02:44:41.327Z,89.97156
2022-09-16T02:49:42.246Z,89.62648
2022-09-16T02:54:43.176Z,89.62648
2022-09-16T02:59:44.133Z,89.97156
2022-09-16T03:04:45.159Z,89.28302
2022-09-16T03:09:46.565Z,88.60094
2022-09-16T03:14:47.586Z,89.62648
2022-09-16T03:19:48.508Z,89.62648
2022-09-16T03:24:49.530Z,89.62648
2022-09-16T03:29:50.518Z,89.28302
2022-09-16T03:34:51.585Z,88.60094
2022-09-16T03:39:52.578Z,89.28302
2022-09-16T03:44:53.663Z,88.60094
2022-09-16T03:49:54.633Z,89.62648
2022-09-16T03:54:55.614Z,88.2623
2022-09-16T03:59:56.629Z,88.60094
2022-09-16T04:04:57.586Z,90.31829
2022-09-16T04:09:58.601Z,90.66667
2022-09-16T04:15:01.027Z,90.31829
2022-09-16T04:20:02.304Z,90.31829
2022-09-16T04:25:03.542Z,89.97156
2022-09-16T04:30:04.526Z,91.01671
2022-09-16T04:35:05.453Z,91.36842
2022-09-16T04:40:06.439Z,91.01671
2022-09-16T04:45:07.343Z,90.66667
2022-09-16T04:50:08.270Z,91.72182
2022-09-16T04:55:09.244Z,92.43373
2022-09-16T05:00:10.165Z,91.01671
2022-09-16T05:05:11.087Z,91.36842
2022-09-16T05:10:11.968Z,91.01671
2022-09-16T05:15:12.865Z,91.01671
2022-09-16T05:20:13.770Z,92.07692
2022-09-16T05:25:14.667Z,92.07692
2022-09-16T05:30:15.591Z,91.72182
2022-09-16T05:35:16.549Z,90.66667
2022-09-16T05:40:17.500Z,88.94118
2022-09-16T05:45:23.174Z,88.94118
2022-09-16T05:50:25.920Z,90.66667
2022-09-16T05:55:26.860Z,92.07692
2022-09-16T06:00:27.748Z,92.79227
2022-09-16T06:05:28.667Z,91.72182
2022-09-16T06:10:29.570Z,91.36842
2022-09-16T06:15:30.504Z,91.72182
2022-09-16T06:20:31.467Z,89.28302
2022-09-16T06:25:32.370Z,92.07692
2022-09-16T06:30:33.433Z,90.66667
2022-09-16T06:35:34.454Z,89.62648
2022-09-16T06:40:35.467Z,89.28302
2022-09-16T06:45:36.593Z,88.94118
2022-09-16T06:50:37.842Z,89.62648
2022-09-16T06:55:38.828Z,88.94118
2022-09-16T07:00:39.774Z,89.97156
2022-09-16T07:05:40.750Z,88.60094
2022-09-16T07:10:41.669Z,87.25581
2022-09-16T07:16:09.332Z,87.92523
2022-09-16T07:21:13.179Z,91.36842
2022-09-16T07:26:14.123Z,88.94118
2022-09-16T07:31:15.448Z,88.60094
2022-09-16T07:36:16.414Z,90.66667
2022-09-16T07:41:17.340Z,91.01671
2022-09-16T07:46:18.302Z,92.07692
2022-09-16T07:51:19.274Z,90.66667
2022-09-16T07:56:20.268Z,88.94118
2022-09-16T08:01:21.326Z,91.01671
2022-09-16T08:06:22.396Z,89.28302
2022-09-16T08:11:23.493Z,91.01671
2022-09-16T08:16:24.771Z,91.36842
2022-09-16T08:21:25.787Z,93.51456
2022-09-16T08:26:26.737Z,91.01671
2022-09-16T08:36:32.516Z,90.66667
2022-09-16T08:41:33.438Z,89.62648
2022-09-16T08:46:34.345Z,89.28302
2022-09-16T08:51:35.292Z,90.66667
2022-09-16T08:56:36.260Z,89.97156
2022-09-16T09:01:37.585Z,88.60094
2022-09-16T09:06:38.804Z,89.28302
2022-09-16T09:11:39.797Z,86.59259
2022-09-16T09:16:40.768Z,88.94118
2022-09-16T09:21:43.999Z,92.07692
2022-09-16T09:26:45.460Z,91.36842
2022-09-16T09:31:46.444Z,88.94118
2022-09-16T09:36:47.531Z,91.72182
2022-09-16T09:41:48.650Z,92.43373
2022-09-16T09:46:49.586Z,88.60094
2022-09-16T09:51:50.516Z,89.28302
2022-09-16T09:56:51.526Z,94.61125
2022-09-16T10:01:52.515Z,96.8536
2022-09-16T10:11:55.290Z,98.77387
2022-09-16T10:16:56.487Z,101.94872
2022-09-16T10:21:57.651Z,99.94937
2022-09-16T10:26:58.729Z,98.0
2022-09-16T10:31:59.864Z,98.0
2022-09-16T10:37:01.436Z,95.72414
2022-09-16T10:42:03.434Z,98.0
2022-09-16T10:47:04.378Z,98.0
2022-09-16T10:52:05.313Z,96.8536
2022-09-16T10:57:06.292Z,94.61125
2022-09-16T11:07:17.088Z,99.55556
2022-09-16T11:12:18.006Z,96.47525
2022-09-16T11:17:18.952Z,95.72414
2022-09-16T11:22:19.925Z,98.38596
2022-09-16T11:27:20.887Z,93.15254
2022-09-16T11:32:22.109Z,93.51456
2022-09-16T11:37:24.318Z,94.98039
2022-09-16T11:42:25.401Z,94.98039
2022-09-16T11:47:26.466Z,96.09877
2022-09-16T11:52:32.541Z,97.61596
2022-09-16T11:57:34.067Z,97.23383
2022-09-16T12:07:38.190Z,96.8536
2022-09-16T12:12:39.538Z,96.09877
2022-09-16T12:17:40.654Z,100.743
2022-09-16T12:22:41.730Z,99.55556
2022-09-16T12:27:42.867Z,99.16373
2022-09-16T12:32:46.067Z,94.61125
2022-09-16T12:37:47.113Z,91.01671
2022-09-16T12:42:48.087Z,91.01671
2022-09-16T12:47:49.035Z,92.79227
2022-09-16T12:52:49.985Z,93.15254
2022-09-16T12:57:51.034Z,89.62648
2022-09-16T13:02:52.036Z,101.14286
2022-09-16T13:07:53.072Z,98.77387
2022-09-16T13:12:54.059Z,94.2439
2022-09-16T13:17:55.001Z,91.01671
2022-09-16T13:22:56.059Z,90.66667
2022-09-16T13:27:57.054Z,86.26328
2022-09-16T13:32:58.011Z,85.2844
2022-09-16T13:37:59.020Z,87.58974
2022-09-16T13:42:59.931Z,93.15254
2022-09-16T13:48:00.940Z,99.94937
2022-09-16T13:53:01.928Z,97.61596
2022-09-16T13:58:04.406Z,91.36842
2022-09-16T14:03:05.374Z,92.07692
2022-09-16T14:08:06.339Z,96.8536
2022-09-16T14:13:07.244Z,96.09877
2022-09-16T14:18:08.342Z,96.09877
2022-09-16T14:23:09.368Z,101.94872
2022-09-16T14:28:10.287Z,101.54476
2022-09-16T14:33:11.207Z,109.14745
2022-09-16T14:38:34.278Z,110.03774
2022-09-16T14:43:45.081Z,104.83551
2022-09-16T14:48:46.075Z,109.14745
2022-09-16T14:54:01.996Z,106.53298
2022-09-16T14:59:13.097Z,110.03774
2022-09-16T15:04:14.039Z,107.82979
2022-09-16T15:09:14.939Z,107.82979
2022-09-16T15:14:15.927Z,106.96296
2022-09-16T15:19:16.881Z,108.26667
2022-09-16T15:24:17.815Z,106.96296
2022-09-16T15:29:18.858Z,108.26667
2022-09-16T15:34:19.833Z,105.25654
2022-09-16T15:39:20.900Z,106.53298
2022-09-16T15:44:23.339Z,107.39523
2022-09-16T15:49:24.540Z,103.58549
2022-09-16T15:54:25.555Z,103.17313
2022-09-16T15:59:26.495Z,101.54476
2022-09-16T16:04:27.396Z,106.96296
2022-09-16T16:09:28.374Z,110.48649
2022-09-16T16:14:32.509Z,107.82979
2022-09-16T16:19:33.877Z,110.03774
2022-09-16T16:24:34.797Z,106.53298
2022-09-16T16:29:35.794Z,110.03774
2022-09-16T16:34:36.755Z,106.96296
2022-09-16T16:39:37.802Z,109.5914
2022-09-16T16:44:38.722Z,114.63712
2022-09-16T16:49:39.752Z,111.84741
2022-09-16T16:59:41.213Z,110.03774
2022-09-16T17:04:42.194Z,114.63712
2022-09-16T17:09:43.138Z,117.03371
2022-09-16T17:14:44.071Z,115.58774
2022-09-16T17:19:45.002Z,116.06704
2022-09-16T17:24:45.934Z,111.84741
2022-09-16T17:29:46.895Z,111.84741
2022-09-16T17:34:47.812Z,113.69697
2022-09-16T17:39:48.785Z,111.84741
2022-09-16T17:44:49.789Z,110.93767
2022-09-16T17:49:51.675Z,112.30601
2022-09-16T17:54:52.691Z,111.84741
2022-09-16T17:59:54.042Z,112.30601
2022-09-16T18:04:56.892Z,111.84741
2022-09-16T18:09:58.342Z,111.84741
2022-09-16T18:14:59.296Z,112.30601
2022-09-16T18:20:04.917Z,115.58774
2022-09-16T18:25:07.957Z,112.76712
2022-09-16T18:30:09.001Z,111.84741
2022-09-16T18:35:10.383Z,108.26667
2022-09-16T18:40:11.467Z,110.93767
2022-09-16T18:45:12.423Z,110.48649
2022-09-16T18:50:13.522Z,112.76712
2022-09-16T18:55:14.465Z,110.48649
2022-09-16T19:00:15.403Z,110.03774
2022-09-16T19:05:16.361Z,109.14745
2022-09-16T19:10:17.322Z,108.26667
2022-09-16T19:15:18.256Z,108.26667
2022-09-16T19:20:19.249Z,108.70588
2022-09-16T19:25:20.501Z,109.14745
2022-09-16T19:30:21.476Z,111.84741
2022-09-16T19:35:26.791Z,110.03774
2022-09-16T19:40:29.912Z,109.5914
2022-09-16T19:45:30.902Z,108.26667
2022-09-16T19:50:31.842Z,107.82979
2022-09-16T19:55:32.919Z,108.70588
2022-09-16T20:00:55.032Z,108.70588
2022-09-16T20:05:56.992Z,108.70588
2022-09-16T20:10:57.901Z,103.17313
2022-09-16T20:15:58.870Z,101.94872
2022-09-16T20:20:59.795Z,100.743
2022-09-16T20:26:00.839Z,102.76289
2022-09-16T20:31:01.879Z,99.55556
2022-09-16T20:36:02.770Z,99.16373
2022-09-16T20:41:03.712Z,99.16373
2022-09-16T20:46:04.843Z,99.16373
2022-09-16T20:51:05.935Z,98.38596
2022-09-16T20:56:06.964Z,96.8536
2022-09-16T21:01:08.040Z,97.23383
2022-09-16T21:06:09.180Z,97.61596
2022-09-16T21:11:10.195Z,98.0
2022-09-16T21:16:11.295Z,98.38596
2022-09-16T21:21:12.274Z,99.16373
2022-09-16T21:26:13.213Z,101.14286
2022-09-16T21:31:14.259Z,99.55556
2022-09-16T21:36:15.295Z,98.0
2022-09-16T21:41:16.241Z,96.8536
2022-09-16T21:46:17.208Z,95.72414
2022-09-16T21:51:18.160Z,95.35135
2022-09-16T21:56:19.095Z,97.61596
2022-09-16T22:01:20.163Z,97.61596
2022-09-16T22:06:21.155Z,98.38596
2022-09-16T22:11:22.107Z,96.8536
2022-09-16T22:16:23.080Z,93.87835
2022-09-16T22:21:24.186Z,93.87835
2022-09-16T22:26:25.469Z,95.72414
2022-09-16T22:31:26.533Z,94.2439
2022-09-16T22:36:27.516Z,93.51456
2022-09-16T22:41:28.504Z,92.43373
2022-09-16T22:46:29.544Z,92.43373
2022-09-16T22:51:30.525Z,94.2439
2022-09-16T22:56:31.457Z,92.43373
2022-09-16T23:01:32.447Z,92.07692
2022-09-16T23:06:33.403Z,92.07692
2022-09-16T23:11:34.400Z,92.07692
2022-09-16T23:16:35.461Z,92.43373
2022-09-16T23:21:36.534Z,91.01671
2022-09-16T23:26:37.422Z,89.28302
2022-09-16T23:31:38.410Z,89.28302
2022-09-16T23:36:39.390Z,89.28302
2022-09-16T23:41:40.350Z,88.94118
2022-09-16T23:46:41.357Z,92.07692
2022-09-16T23:51:42.341Z,92.79227
2022-09-16T23:56:43.277Z,91.36842
